WZZ2CG LEBL-EPWA
Flight info
| Callsign | WZZ2CG |
|---|---|
| Flight time | 2h 19m |
| Altitude | 34000 |
| Route | AGENA M985 LUMAS DCT UNANA DCT STP DCT RAPED DCT PIGOS DCT EKSID DCT NOSTA/N0400F320 DCT NOPMU/N0422F360 DCT MALUG/N0424F370 DCT LEDVA DCT NETIR DCT ORTEB/N0419F360 DCT KONZI DCT LOGDA |
| Aircraft | A20N/M-SDE1E2E3FGIJ1J4RWXY/LB1 |
Departure
| Time | 2026-05-06 20:04 |
|---|---|
| Airport | Josep Tarradellas Barcelona-El Prat Airport (LEBL) |
Arrival
| Time | 2026-05-06 22:23 |
|---|---|
| Airport | Warsaw Chopin Airport (EPWA) |
| Time | Latitude | Longitude | Altitude | Speed | Heading |
|---|---|---|---|---|---|
| 2026-05-06 19:39 | 41.30236 | 2.07926 | 19 ft | 0 kts | 24° |
| 2026-05-06 19:52 | 41.30235 | 2.07926 | 18 ft | 1 kts | 24° |
| 2026-05-06 19:52 | 41.30229 | 2.07922 | 18 ft | 1 kts | 23° |
| 2026-05-06 19:53 | 41.30223 | 2.07919 | 18 ft | 1 kts | 18° |
| 2026-05-06 19:53 | 41.30217 | 2.07916 | 17 ft | 1 kts | 13° |
| 2026-05-06 19:53 | 41.30209 | 2.07914 | 19 ft | 1 kts | 12° |
| 2026-05-06 19:53 | 41.30202 | 2.07912 | 18 ft | 1 kts | 12° |
| 2026-05-06 19:54 | 41.30192 | 2.07909 | 19 ft | 2 kts | 12° |
| 2026-05-06 19:54 | 41.30178 | 2.07906 | 17 ft | 2 kts | 6° |
| 2026-05-06 19:54 | 41.30163 | 2.07904 | 21 ft | 2 kts | 1° |
| 2026-05-06 19:54 | 41.30148 | 2.07904 | 19 ft | 2 kts | 355° |
| 2026-05-06 19:55 | 41.30134 | 2.07905 | 20 ft | 1 kts | 4° |
| 2026-05-06 19:55 | 41.30126 | 2.07905 | 21 ft | 1 kts | 15° |
| 2026-05-06 19:55 | 41.30119 | 2.07902 | 21 ft | 1 kts | 31° |
| 2026-05-06 19:55 | 41.30113 | 2.07896 | 17 ft | 1 kts | 46° |
| 2026-05-06 19:56 | 41.30109 | 2.07891 | 18 ft | 0 kts | 58° |
| 2026-05-06 19:57 | 41.30110 | 2.07893 | 18 ft | 1 kts | 58° |
| 2026-05-06 19:57 | 41.30119 | 2.07918 | 18 ft | 5 kts | 68° |
| 2026-05-06 19:57 | 41.30136 | 2.07970 | 18 ft | 8 kts | 65° |
| 2026-05-06 19:57 | 41.30162 | 2.08045 | 19 ft | 10 kts | 65° |
| 2026-05-06 19:58 | 41.30190 | 2.08146 | 18 ft | 12 kts | 86° |
| 2026-05-06 19:58 | 41.30134 | 2.08209 | 18 ft | 12 kts | 156° |
| 2026-05-06 19:58 | 41.30051 | 2.08258 | 18 ft | 14 kts | 155° |
| 2026-05-06 19:58 | 41.29955 | 2.08316 | 18 ft | 16 kts | 156° |
| 2026-05-06 19:59 | 41.29850 | 2.08378 | 21 ft | 17 kts | 156° |
| 2026-05-06 19:59 | 41.29732 | 2.08450 | 19 ft | 20 kts | 155° |
| 2026-05-06 19:59 | 41.29599 | 2.08532 | 17 ft | 22 kts | 154° |
| 2026-05-06 19:59 | 41.29457 | 2.08616 | 17 ft | 23 kts | 156° |
| 2026-05-06 20:00 | 41.29303 | 2.08708 | 15 ft | 25 kts | 155° |
| 2026-05-06 20:00 | 41.29147 | 2.08801 | 18 ft | 23 kts | 156° |
| 2026-05-06 20:00 | 41.29016 | 2.08880 | 20 ft | 15 kts | 155° |
| 2026-05-06 20:00 | 41.28949 | 2.08975 | 17 ft | 15 kts | 81° |
| 2026-05-06 20:01 | 41.28993 | 2.09112 | 19 ft | 17 kts | 65° |
| 2026-05-06 20:01 | 41.29044 | 2.09265 | 18 ft | 19 kts | 66° |
| 2026-05-06 20:01 | 41.29102 | 2.09430 | 18 ft | 21 kts | 65° |
| 2026-05-06 20:01 | 41.29162 | 2.09607 | 18 ft | 22 kts | 66° |
| 2026-05-06 20:02 | 41.29227 | 2.09796 | 17 ft | 23 kts | 65° |
| 2026-05-06 20:02 | 41.29283 | 2.09969 | 19 ft | 20 kts | 82° |
| 2026-05-06 20:02 | 41.29312 | 2.10130 | 17 ft | 15 kts | 107° |
| 2026-05-06 20:02 | 41.29270 | 2.10272 | 14 ft | 18 kts | 119° |
| 2026-05-06 20:03 | 41.29197 | 2.10254 | 13 ft | 13 kts | 244° |
| 2026-05-06 20:03 | 41.29142 | 2.10096 | 14 ft | 40 kts | 245° |
| 2026-05-06 20:03 | 41.28920 | 2.09448 | 14 ft | 111 kts | 245° |
| 2026-05-06 20:03 | 41.28517 | 2.08286 | 91 ft | 157 kts | 244° |
| 2026-05-06 20:04 | 41.28008 | 2.06986 | 643 ft | 161 kts | 231° |
| 2026-05-06 20:04 | 41.27093 | 2.06192 | 1314 ft | 160 kts | 189° |
| 2026-05-06 20:04 | 41.25970 | 2.06192 | 1953 ft | 170 kts | 179° |
| 2026-05-06 20:04 | 41.24720 | 2.06232 | 2398 ft | 189 kts | 182° |
| 2026-05-06 20:05 | 41.23321 | 2.06200 | 2844 ft | 213 kts | 184° |
| 2026-05-06 20:05 | 41.21816 | 2.06097 | 3632 ft | 219 kts | 186° |
| 2026-05-06 20:05 | 41.20284 | 2.05962 | 4495 ft | 225 kts | 186° |
| 2026-05-06 20:05 | 41.18697 | 2.05807 | 5313 ft | 231 kts | 186° |
| 2026-05-06 20:06 | 41.17090 | 2.05649 | 6215 ft | 234 kts | 185° |
| 2026-05-06 20:06 | 41.15393 | 2.05537 | 6787 ft | 252 kts | 184° |
| 2026-05-06 20:06 | 41.13626 | 2.05464 | 7634 ft | 255 kts | 183° |
| 2026-05-06 20:06 | 41.11848 | 2.05399 | 8547 ft | 257 kts | 184° |
| 2026-05-06 20:07 | 41.10039 | 2.05326 | 9374 ft | 263 kts | 184° |
| 2026-05-06 20:07 | 41.08199 | 2.05245 | 10221 ft | 266 kts | 184° |
| 2026-05-06 20:07 | 41.06346 | 2.05160 | 11052 ft | 268 kts | 185° |
| 2026-05-06 20:07 | 41.04472 | 2.05071 | 11861 ft | 271 kts | 185° |
| 2026-05-06 20:08 | 41.02582 | 2.04981 | 12674 ft | 273 kts | 185° |
| 2026-05-06 20:08 | 41.00670 | 2.05050 | 13463 ft | 279 kts | 169° |
| 2026-05-06 20:08 | 40.98894 | 2.06120 | 14164 ft | 287 kts | 143° |
| 2026-05-06 20:08 | 40.97535 | 2.08098 | 14754 ft | 298 kts | 128° |
| 2026-05-06 20:09 | 40.96312 | 2.10442 | 14968 ft | 321 kts | 124° |
| 2026-05-06 20:09 | 40.95045 | 2.13001 | 15176 ft | 343 kts | 125° |
| 2026-05-06 20:09 | 40.93680 | 2.15705 | 15377 ft | 364 kts | 126° |
| 2026-05-06 20:09 | 40.92212 | 2.18528 | 15683 ft | 379 kts | 126° |
| 2026-05-06 20:10 | 40.90690 | 2.21402 | 16329 ft | 384 kts | 127° |
| 2026-05-06 20:10 | 40.89167 | 2.24323 | 16984 ft | 390 kts | 122° |
| 2026-05-06 20:10 | 40.88412 | 2.26486 | 17397 ft | 395 kts | 109° |
| 2026-05-06 20:10 | 40.87933 | 2.30087 | 17988 ft | 403 kts | 91° |
| 2026-05-06 20:11 | 40.88300 | 2.33778 | 18527 ft | 409 kts | 72° |
| 2026-05-06 20:11 | 40.89486 | 2.37199 | 19050 ft | 412 kts | 54° |
| 2026-05-06 20:11 | 40.91283 | 2.40155 | 19568 ft | 415 kts | 45° |
| 2026-05-06 20:11 | 40.93249 | 2.42969 | 20124 ft | 419 kts | 45° |
| 2026-05-06 20:12 | 40.95201 | 2.45861 | 20657 ft | 424 kts | 47° |
| 2026-05-06 20:12 | 40.97104 | 2.48869 | 21189 ft | 429 kts | 49° |
| 2026-05-06 20:12 | 40.98974 | 2.51971 | 21711 ft | 434 kts | 50° |
| 2026-05-06 20:12 | 41.00835 | 2.55140 | 22236 ft | 438 kts | 50° |
| 2026-05-06 20:13 | 41.02701 | 2.58354 | 22758 ft | 442 kts | 50° |
| 2026-05-06 20:13 | 41.04581 | 2.61602 | 23272 ft | 447 kts | 50° |
| 2026-05-06 20:13 | 41.06480 | 2.64885 | 23738 ft | 451 kts | 50° |
| 2026-05-06 20:13 | 41.08399 | 2.68204 | 24138 ft | 456 kts | 50° |
| 2026-05-06 20:14 | 41.10338 | 2.71555 | 24540 ft | 460 kts | 50° |
| 2026-05-06 20:14 | 41.12292 | 2.74936 | 24941 ft | 464 kts | 50° |
| 2026-05-06 20:14 | 41.14263 | 2.78351 | 25345 ft | 468 kts | 50° |
| 2026-05-06 20:14 | 41.16250 | 2.81797 | 25750 ft | 472 kts | 50° |
| 2026-05-06 20:15 | 41.18254 | 2.85276 | 26124 ft | 476 kts | 50° |
| 2026-05-06 20:15 | 41.20270 | 2.88779 | 26493 ft | 480 kts | 51° |
| 2026-05-06 20:15 | 41.22302 | 2.92316 | 26872 ft | 483 kts | 51° |
| 2026-05-06 20:15 | 41.24349 | 2.95882 | 27239 ft | 487 kts | 51° |
| 2026-05-06 20:16 | 41.26408 | 2.99471 | 27590 ft | 490 kts | 51° |
| 2026-05-06 20:16 | 41.28482 | 3.03090 | 27944 ft | 494 kts | 51° |
| 2026-05-06 20:16 | 41.30570 | 3.06738 | 28258 ft | 498 kts | 51° |
| 2026-05-06 20:16 | 41.32681 | 3.10431 | 28453 ft | 505 kts | 50° |
| 2026-05-06 20:17 | 41.34811 | 3.14164 | 28800 ft | 507 kts | 50° |
| 2026-05-06 20:17 | 41.36951 | 3.17917 | 29118 ft | 510 kts | 50° |
| 2026-05-06 20:17 | 41.39072 | 3.21642 | 29420 ft | 514 kts | 50° |
| 2026-05-06 20:17 | 41.41236 | 3.25446 | 29714 ft | 517 kts | 50° |
| 2026-05-06 20:18 | 41.43410 | 3.29272 | 30012 ft | 520 kts | 50° |
| 2026-05-06 20:18 | 41.45598 | 3.33130 | 30292 ft | 522 kts | 50° |
| 2026-05-06 20:18 | 41.47787 | 3.36993 | 30617 ft | 523 kts | 50° |
| 2026-05-06 20:18 | 41.49984 | 3.40875 | 30923 ft | 525 kts | 50° |
| 2026-05-06 20:19 | 41.52155 | 3.44797 | 31342 ft | 525 kts | 55° |
| 2026-05-06 20:19 | 41.53943 | 3.49030 | 31832 ft | 524 kts | 65° |
| 2026-05-06 20:19 | 41.55223 | 3.53575 | 32210 ft | 523 kts | 75° |
| 2026-05-06 20:19 | 41.56042 | 3.58299 | 32568 ft | 522 kts | 79° |
| 2026-05-06 20:20 | 41.56812 | 3.63026 | 32931 ft | 521 kts | 78° |
| 2026-05-06 20:20 | 41.57587 | 3.67748 | 33299 ft | 520 kts | 78° |
| 2026-05-06 20:20 | 41.58362 | 3.72470 | 33654 ft | 519 kts | 78° |
| 2026-05-06 20:20 | 41.59131 | 3.77174 | 33938 ft | 519 kts | 78° |
| 2026-05-06 20:21 | 41.60659 | 3.86575 | 33987 ft | 517 kts | 79° |
| 2026-05-06 20:21 | 41.62176 | 3.95963 | 33989 ft | 517 kts | 79° |
| 2026-05-06 20:22 | 41.63686 | 4.05356 | 33993 ft | 517 kts | 79° |
| 2026-05-06 20:22 | 41.65189 | 4.14754 | 33994 ft | 517 kts | 79° |
| 2026-05-06 20:23 | 41.66684 | 4.24158 | 33989 ft | 516 kts | 79° |
| 2026-05-06 20:23 | 41.68170 | 4.33559 | 33990 ft | 517 kts | 79° |
| 2026-05-06 20:24 | 41.69648 | 4.42965 | 34005 ft | 517 kts | 79° |
| 2026-05-06 20:24 | 41.71120 | 4.52385 | 34003 ft | 517 kts | 79° |
| 2026-05-06 20:25 | 41.72668 | 4.61776 | 33996 ft | 517 kts | 73° |
| 2026-05-06 20:25 | 41.74035 | 4.66216 | 33993 ft | 516 kts | 60° |
| 2026-05-06 20:25 | 41.75992 | 4.70219 | 33988 ft | 513 kts | 48° |
| 2026-05-06 20:26 | 41.80976 | 4.76968 | 33980 ft | 509 kts | 40° |
| 2026-05-06 20:26 | 41.86091 | 4.83537 | 33981 ft | 509 kts | 40° |
| 2026-05-06 20:27 | 41.91152 | 4.90189 | 33997 ft | 510 kts | 41° |
| 2026-05-06 20:27 | 41.96194 | 4.96883 | 33972 ft | 510 kts | 41° |
| 2026-05-06 20:28 | 42.01229 | 5.03589 | 33979 ft | 510 kts | 41° |
| 2026-05-06 20:28 | 42.06231 | 5.10264 | 33981 ft | 510 kts | 41° |
| 2026-05-06 20:29 | 42.11266 | 5.16998 | 33988 ft | 510 kts | 42° |
| 2026-05-06 20:29 | 42.16277 | 5.23719 | 33985 ft | 508 kts | 42° |
| 2026-05-06 20:30 | 42.23786 | 5.33816 | 33969 ft | 509 kts | 42° |
| 2026-05-06 20:31 | 42.28813 | 5.40594 | 34007 ft | 510 kts | 42° |
| 2026-05-06 20:31 | 42.33807 | 5.47347 | 33982 ft | 508 kts | 42° |
| 2026-05-06 20:32 | 42.38802 | 5.54117 | 33982 ft | 508 kts | 42° |
| 2026-05-06 20:32 | 42.43792 | 5.60896 | 33980 ft | 508 kts | 43° |
| 2026-05-06 20:33 | 42.48776 | 5.67682 | 33986 ft | 508 kts | 43° |
| 2026-05-06 20:33 | 42.53737 | 5.74453 | 33976 ft | 507 kts | 43° |
| 2026-05-06 20:34 | 42.58724 | 5.81276 | 33979 ft | 510 kts | 43° |
| 2026-05-06 20:34 | 42.63704 | 5.88108 | 33972 ft | 509 kts | 43° |
| 2026-05-06 20:35 | 42.68683 | 5.94954 | 33969 ft | 509 kts | 43° |
| 2026-05-06 20:35 | 42.73655 | 6.01807 | 33963 ft | 509 kts | 43° |
| 2026-05-06 20:36 | 42.78625 | 6.08673 | 33967 ft | 509 kts | 43° |
| 2026-05-06 20:36 | 42.83563 | 6.15511 | 33929 ft | 510 kts | 43° |
| 2026-05-06 20:37 | 42.88805 | 6.21977 | 33951 ft | 508 kts | 37° |
| 2026-05-06 20:37 | 42.94226 | 6.28166 | 33966 ft | 508 kts | 37° |
| 2026-05-06 20:38 | 42.99641 | 6.34379 | 33968 ft | 508 kts | 37° |
| 2026-05-06 20:38 | 43.05047 | 6.40604 | 33984 ft | 508 kts | 37° |
| 2026-05-06 20:39 | 43.10435 | 6.46824 | 33924 ft | 506 kts | 38° |
| 2026-05-06 20:39 | 43.15838 | 6.53073 | 33947 ft | 509 kts | 38° |
| 2026-05-06 20:40 | 43.21157 | 6.59466 | 33926 ft | 510 kts | 44° |
| 2026-05-06 20:40 | 43.25588 | 6.67067 | 33918 ft | 511 kts | 53° |
| 2026-05-06 20:41 | 43.29759 | 6.74949 | 33906 ft | 510 kts | 53° |
| 2026-05-06 20:41 | 43.33920 | 6.82819 | 33899 ft | 509 kts | 53° |
| 2026-05-06 20:42 | 43.38083 | 6.90732 | 33908 ft | 515 kts | 53° |
| 2026-05-06 20:42 | 43.42240 | 6.98662 | 33948 ft | 513 kts | 54° |
| 2026-05-06 20:43 | 43.46390 | 7.06599 | 33911 ft | 511 kts | 54° |
| 2026-05-06 20:43 | 43.50539 | 7.14556 | 33902 ft | 511 kts | 54° |
| 2026-05-06 20:44 | 43.54680 | 7.22520 | 33902 ft | 511 kts | 54° |
| 2026-05-06 20:44 | 43.58815 | 7.30494 | 33884 ft | 511 kts | 54° |
| 2026-05-06 20:45 | 43.62944 | 7.38476 | 33887 ft | 511 kts | 54° |
| 2026-05-06 20:45 | 43.67061 | 7.46459 | 33886 ft | 510 kts | 54° |
| 2026-05-06 20:46 | 43.71170 | 7.54448 | 33869 ft | 510 kts | 54° |
| 2026-05-06 20:46 | 43.75269 | 7.62439 | 33855 ft | 509 kts | 54° |
| 2026-05-06 20:47 | 43.79366 | 7.70444 | 33855 ft | 510 kts | 54° |
| 2026-05-06 20:47 | 43.84098 | 7.77705 | 33857 ft | 508 kts | 39° |
| 2026-05-06 20:48 | 43.89647 | 7.83741 | 33854 ft | 507 kts | 35° |
| 2026-05-06 20:48 | 43.95133 | 7.89911 | 33860 ft | 509 kts | 43° |
| 2026-05-06 20:49 | 43.99896 | 7.97215 | 33842 ft | 511 kts | 48° |
| 2026-05-06 20:49 | 44.04623 | 8.04672 | 33876 ft | 516 kts | 48° |
| 2026-05-06 20:50 | 44.09360 | 8.12145 | 33877 ft | 514 kts | 48° |
| 2026-05-06 20:50 | 44.14094 | 8.19642 | 33892 ft | 514 kts | 48° |
| 2026-05-06 20:51 | 44.18793 | 8.27112 | 33880 ft | 513 kts | 48° |
| 2026-05-06 20:51 | 44.23496 | 8.34612 | 33847 ft | 514 kts | 48° |
| 2026-05-06 20:52 | 44.28174 | 8.42093 | 33873 ft | 515 kts | 48° |
| 2026-05-06 20:52 | 44.32873 | 8.49625 | 33906 ft | 512 kts | 49° |
| 2026-05-06 20:53 | 44.37549 | 8.57143 | 33916 ft | 513 kts | 49° |
| 2026-05-06 20:53 | 44.42225 | 8.64678 | 33935 ft | 513 kts | 49° |
| 2026-05-06 20:54 | 44.46899 | 8.72231 | 33894 ft | 513 kts | 49° |
| 2026-05-06 20:54 | 44.51568 | 8.79793 | 33939 ft | 513 kts | 49° |
| 2026-05-06 20:55 | 44.56226 | 8.87362 | 33934 ft | 513 kts | 49° |
| 2026-05-06 20:55 | 44.60869 | 8.94924 | 33928 ft | 512 kts | 49° |
| 2026-05-06 20:56 | 44.65510 | 9.02506 | 33926 ft | 511 kts | 49° |
| 2026-05-06 20:56 | 44.70135 | 9.10080 | 33926 ft | 511 kts | 50° |
| 2026-05-06 20:57 | 44.73988 | 9.16405 | 33914 ft | 514 kts | 50° |
| 2026-05-06 20:57 | 44.78636 | 9.24054 | 33912 ft | 513 kts | 50° |
| 2026-05-06 20:58 | 44.83260 | 9.31685 | 33917 ft | 512 kts | 50° |
| 2026-05-06 20:58 | 44.87875 | 9.39321 | 33910 ft | 512 kts | 50° |
| 2026-05-06 20:59 | 44.92483 | 9.46965 | 33905 ft | 511 kts | 50° |
| 2026-05-06 20:59 | 44.97087 | 9.54625 | 33901 ft | 511 kts | 50° |
| 2026-05-06 21:00 | 45.01693 | 9.62308 | 33895 ft | 516 kts | 50° |
| 2026-05-06 21:00 | 45.06354 | 9.70105 | 33878 ft | 519 kts | 50° |
| 2026-05-06 21:01 | 45.11003 | 9.77904 | 33880 ft | 518 kts | 50° |
| 2026-05-06 21:01 | 45.15614 | 9.85660 | 33886 ft | 518 kts | 51° |
| 2026-05-06 21:02 | 45.20238 | 9.93458 | 33864 ft | 517 kts | 51° |
| 2026-05-06 21:02 | 45.24862 | 10.01279 | 33861 ft | 517 kts | 51° |
| 2026-05-06 21:03 | 45.29482 | 10.09116 | 33824 ft | 518 kts | 51° |
| 2026-05-06 21:03 | 45.34098 | 10.16967 | 33882 ft | 519 kts | 51° |
| 2026-05-06 21:04 | 45.38720 | 10.24851 | 33885 ft | 519 kts | 51° |
| 2026-05-06 21:04 | 45.43343 | 10.32759 | 33915 ft | 520 kts | 51° |
| 2026-05-06 21:05 | 45.47965 | 10.40686 | 33921 ft | 520 kts | 51° |
| 2026-05-06 21:05 | 45.52586 | 10.48636 | 33911 ft | 521 kts | 51° |
| 2026-05-06 21:06 | 45.57208 | 10.56608 | 33902 ft | 521 kts | 51° |
| 2026-05-06 21:06 | 45.61823 | 10.64593 | 33899 ft | 521 kts | 51° |
| 2026-05-06 21:07 | 45.66430 | 10.72586 | 33897 ft | 521 kts | 51° |
| 2026-05-06 21:07 | 45.71036 | 10.80599 | 33913 ft | 522 kts | 52° |
| 2026-05-06 21:08 | 45.75635 | 10.88625 | 33911 ft | 519 kts | 52° |
| 2026-05-06 21:08 | 45.80212 | 10.96634 | 33918 ft | 520 kts | 52° |
| 2026-05-06 21:09 | 45.84787 | 11.04659 | 33934 ft | 520 kts | 52° |
| 2026-05-06 21:09 | 45.89343 | 11.12682 | 33927 ft | 520 kts | 52° |
| 2026-05-06 21:10 | 45.93905 | 11.20734 | 33944 ft | 520 kts | 52° |
| 2026-05-06 21:10 | 45.98465 | 11.28803 | 33944 ft | 520 kts | 52° |
| 2026-05-06 21:11 | 46.02990 | 11.36837 | 33961 ft | 520 kts | 52° |
| 2026-05-06 21:11 | 46.07534 | 11.44925 | 33939 ft | 518 kts | 53° |
| 2026-05-06 21:12 | 46.12058 | 11.53002 | 33938 ft | 518 kts | 53° |
| 2026-05-06 21:12 | 46.16578 | 11.61096 | 33944 ft | 519 kts | 53° |
| 2026-05-06 21:13 | 46.21092 | 11.69206 | 33943 ft | 518 kts | 53° |
| 2026-05-06 21:13 | 46.25606 | 11.77339 | 33929 ft | 518 kts | 53° |
| 2026-05-06 21:14 | 46.30102 | 11.85463 | 33933 ft | 517 kts | 53° |
| 2026-05-06 21:14 | 46.34586 | 11.93584 | 33928 ft | 516 kts | 53° |
| 2026-05-06 21:15 | 46.39032 | 12.01673 | 33930 ft | 514 kts | 53° |
| 2026-05-06 21:15 | 46.43508 | 12.09819 | 33922 ft | 517 kts | 53° |
| 2026-05-06 21:16 | 46.47973 | 12.17974 | 33928 ft | 517 kts | 53° |
| 2026-05-06 21:16 | 46.52441 | 12.26163 | 33972 ft | 516 kts | 53° |
| 2026-05-06 21:17 | 46.56886 | 12.34336 | 33969 ft | 516 kts | 53° |
| 2026-05-06 21:17 | 46.61327 | 12.42523 | 33970 ft | 515 kts | 53° |
| 2026-05-06 21:18 | 46.65766 | 12.50724 | 33965 ft | 515 kts | 53° |
| 2026-05-06 21:18 | 46.70197 | 12.58929 | 33964 ft | 515 kts | 54° |
| 2026-05-06 21:19 | 46.74456 | 12.67309 | 33956 ft | 515 kts | 54° |
| 2026-05-06 21:19 | 46.78820 | 12.75628 | 33943 ft | 518 kts | 54° |
| 2026-05-06 21:20 | 46.83166 | 12.83972 | 33939 ft | 515 kts | 54° |
| 2026-05-06 21:20 | 46.87483 | 12.92344 | 33940 ft | 515 kts | 54° |
| 2026-05-06 21:21 | 46.91764 | 13.00680 | 33932 ft | 513 kts | 54° |
| 2026-05-06 21:21 | 46.96015 | 13.08988 | 33937 ft | 513 kts | 54° |
| 2026-05-06 21:22 | 47.00315 | 13.17408 | 33936 ft | 513 kts | 55° |
| 2026-05-06 21:22 | 47.04589 | 13.25812 | 33884 ft | 512 kts | 54° |
| 2026-05-06 21:23 | 47.08834 | 13.34186 | 33935 ft | 513 kts | 55° |
| 2026-05-06 21:23 | 47.13054 | 13.42536 | 33919 ft | 512 kts | 55° |
| 2026-05-06 21:24 | 47.17293 | 13.50945 | 33919 ft | 513 kts | 55° |
| 2026-05-06 21:24 | 47.21524 | 13.59359 | 33930 ft | 511 kts | 55° |
| 2026-05-06 21:25 | 47.25740 | 13.67771 | 33904 ft | 510 kts | 55° |
| 2026-05-06 21:25 | 47.29936 | 13.76174 | 33889 ft | 509 kts | 55° |
| 2026-05-06 21:26 | 47.34116 | 13.84569 | 33885 ft | 507 kts | 55° |
| 2026-05-06 21:26 | 47.38292 | 13.92981 | 33908 ft | 510 kts | 55° |
| 2026-05-06 21:27 | 47.42477 | 14.01432 | 33903 ft | 510 kts | 56° |
| 2026-05-06 21:27 | 47.46653 | 14.09895 | 33888 ft | 508 kts | 55° |
| 2026-05-06 21:28 | 47.50816 | 14.18356 | 33911 ft | 509 kts | 56° |
| 2026-05-06 21:28 | 47.54974 | 14.26832 | 33930 ft | 510 kts | 56° |
| 2026-05-06 21:29 | 47.59116 | 14.35305 | 33904 ft | 511 kts | 56° |
| 2026-05-06 21:29 | 47.63283 | 14.43854 | 33885 ft | 510 kts | 55° |
| 2026-05-06 21:30 | 47.67428 | 14.52383 | 33893 ft | 510 kts | 55° |
| 2026-05-06 21:30 | 47.71575 | 14.60943 | 33885 ft | 510 kts | 56° |
| 2026-05-06 21:31 | 47.75707 | 14.69503 | 33870 ft | 510 kts | 55° |
| 2026-05-06 21:31 | 47.79842 | 14.78092 | 33865 ft | 511 kts | 56° |
| 2026-05-06 21:32 | 47.83971 | 14.86697 | 33864 ft | 510 kts | 55° |
| 2026-05-06 21:32 | 47.90147 | 14.99616 | 33855 ft | 508 kts | 55° |
| 2026-05-06 21:33 | 47.94230 | 15.08198 | 33843 ft | 508 kts | 55° |
| 2026-05-06 21:33 | 47.98316 | 15.16810 | 33844 ft | 508 kts | 55° |
| 2026-05-06 21:34 | 48.02396 | 15.25434 | 33843 ft | 509 kts | 55° |
| 2026-05-06 21:34 | 48.06465 | 15.34062 | 33828 ft | 507 kts | 55° |
| 2026-05-06 21:35 | 48.10525 | 15.42698 | 33825 ft | 508 kts | 56° |
| 2026-05-06 21:35 | 48.14581 | 15.51351 | 33820 ft | 508 kts | 56° |
| 2026-05-06 21:36 | 48.18631 | 15.60022 | 33821 ft | 507 kts | 55° |
| 2026-05-06 21:36 | 48.22670 | 15.68696 | 33826 ft | 507 kts | 55° |
| 2026-05-06 21:37 | 48.26702 | 15.77384 | 33805 ft | 507 kts | 55° |
| 2026-05-06 21:37 | 48.30726 | 15.86080 | 33799 ft | 507 kts | 55° |
| 2026-05-06 21:38 | 48.34740 | 15.94782 | 33792 ft | 507 kts | 55° |
| 2026-05-06 21:38 | 48.38718 | 16.03437 | 33783 ft | 506 kts | 56° |
| 2026-05-06 21:39 | 48.42715 | 16.12157 | 33778 ft | 506 kts | 56° |
| 2026-05-06 21:39 | 48.46687 | 16.20854 | 33771 ft | 499 kts | 56° |
| 2026-05-06 21:40 | 48.50618 | 16.29488 | 33776 ft | 501 kts | 56° |
| 2026-05-06 21:40 | 48.54552 | 16.38154 | 33772 ft | 500 kts | 56° |
| 2026-05-06 21:41 | 48.58480 | 16.46836 | 33773 ft | 502 kts | 56° |
| 2026-05-06 21:41 | 48.62410 | 16.55550 | 33773 ft | 501 kts | 56° |
| 2026-05-06 21:42 | 48.66329 | 16.64265 | 33769 ft | 501 kts | 56° |
| 2026-05-06 21:42 | 48.70243 | 16.72986 | 33762 ft | 501 kts | 56° |
| 2026-05-06 21:43 | 48.74173 | 16.81672 | 33765 ft | 497 kts | 53° |
| 2026-05-06 21:43 | 48.78450 | 16.89847 | 33769 ft | 495 kts | 51° |
| 2026-05-06 21:44 | 48.82775 | 16.97991 | 33769 ft | 495 kts | 51° |
| 2026-05-06 21:44 | 48.86325 | 17.04812 | 33777 ft | 496 kts | 52° |
| 2026-05-06 21:45 | 48.90580 | 17.13059 | 33780 ft | 496 kts | 52° |
| 2026-05-06 21:45 | 48.94827 | 17.21327 | 33781 ft | 496 kts | 52° |
| 2026-05-06 21:46 | 48.99076 | 17.29620 | 33781 ft | 497 kts | 52° |
| 2026-05-06 21:46 | 49.03318 | 17.37924 | 33796 ft | 497 kts | 52° |
| 2026-05-06 21:47 | 49.07561 | 17.46256 | 33798 ft | 497 kts | 52° |
| 2026-05-06 21:47 | 49.11797 | 17.54599 | 33790 ft | 498 kts | 52° |
| 2026-05-06 21:48 | 49.16036 | 17.62975 | 33804 ft | 498 kts | 52° |
| 2026-05-06 21:48 | 49.20269 | 17.71366 | 33806 ft | 499 kts | 52° |
| 2026-05-06 21:49 | 49.24501 | 17.79782 | 33806 ft | 499 kts | 52° |
| 2026-05-06 21:49 | 49.28724 | 17.88206 | 33806 ft | 499 kts | 52° |
| 2026-05-06 21:50 | 49.32947 | 17.96656 | 33810 ft | 499 kts | 52° |
| 2026-05-06 21:50 | 49.37134 | 18.05062 | 33811 ft | 499 kts | 52° |
| 2026-05-06 21:51 | 49.41341 | 18.13534 | 33796 ft | 497 kts | 52° |
| 2026-05-06 21:51 | 49.45472 | 18.21882 | 33809 ft | 493 kts | 52° |
| 2026-05-06 21:52 | 49.49636 | 18.30318 | 33808 ft | 494 kts | 52° |
| 2026-05-06 21:52 | 49.53790 | 18.38765 | 33803 ft | 495 kts | 52° |
| 2026-05-06 21:53 | 49.57933 | 18.47216 | 33806 ft | 494 kts | 52° |
| 2026-05-06 21:53 | 49.62070 | 18.55680 | 33806 ft | 495 kts | 52° |
| 2026-05-06 21:54 | 49.66204 | 18.64163 | 33804 ft | 494 kts | 53° |
| 2026-05-06 21:54 | 49.69787 | 18.73190 | 33807 ft | 494 kts | 65° |
| 2026-05-06 21:55 | 49.72222 | 18.83076 | 33783 ft | 492 kts | 72° |
| 2026-05-06 21:55 | 49.75117 | 18.92540 | 33809 ft | 489 kts | 53° |
| 2026-05-06 21:56 | 49.77368 | 18.96461 | 33834 ft | 489 kts | 40° |
| 2026-05-06 21:56 | 49.80084 | 18.99624 | 33818 ft | 488 kts | 28° |
| 2026-05-06 21:56 | 49.83127 | 19.01871 | 33815 ft | 482 kts | 15° |
| 2026-05-06 21:56 | 49.86335 | 19.03310 | 33810 ft | 479 kts | 11° |
| 2026-05-06 21:57 | 49.92738 | 19.06236 | 33809 ft | 481 kts | 15° |
| 2026-05-06 21:57 | 49.99009 | 19.09960 | 33813 ft | 484 kts | 18° |
| 2026-05-06 21:58 | 50.05234 | 19.13980 | 33807 ft | 485 kts | 19° |
| 2026-05-06 21:58 | 50.11461 | 19.18039 | 33812 ft | 485 kts | 19° |
| 2026-05-06 21:59 | 50.17698 | 19.22105 | 33815 ft | 486 kts | 19° |
| 2026-05-06 21:59 | 50.23924 | 19.26173 | 33804 ft | 483 kts | 18° |
| 2026-05-06 22:00 | 50.30085 | 19.30207 | 33808 ft | 484 kts | 18° |
| 2026-05-06 22:00 | 50.36298 | 19.34286 | 33807 ft | 484 kts | 19° |
| 2026-05-06 22:01 | 50.42500 | 19.38371 | 33826 ft | 484 kts | 18° |
| 2026-05-06 22:01 | 50.48736 | 19.42488 | 33812 ft | 486 kts | 18° |
| 2026-05-06 22:02 | 50.54971 | 19.46620 | 33812 ft | 486 kts | 18° |
| 2026-05-06 22:02 | 50.61196 | 19.50755 | 33793 ft | 485 kts | 18° |
| 2026-05-06 22:03 | 50.64295 | 19.52819 | 33470 ft | 483 kts | 18° |
| 2026-05-06 22:03 | 50.67380 | 19.54875 | 32575 ft | 481 kts | 19° |
| 2026-05-06 22:03 | 50.70479 | 19.56939 | 31231 ft | 486 kts | 19° |
| 2026-05-06 22:03 | 50.73613 | 19.59029 | 29803 ft | 493 kts | 20° |
| 2026-05-06 22:04 | 50.76788 | 19.61152 | 28658 ft | 494 kts | 20° |
| 2026-05-06 22:04 | 50.79916 | 19.63253 | 27816 ft | 483 kts | 20° |
| 2026-05-06 22:04 | 50.82960 | 19.65303 | 27304 ft | 467 kts | 20° |
| 2026-05-06 22:04 | 50.85914 | 19.67293 | 27160 ft | 460 kts | 20° |
| 2026-05-06 22:05 | 50.88894 | 19.69296 | 27005 ft | 468 kts | 20° |
| 2026-05-06 22:05 | 50.91887 | 19.71311 | 26623 ft | 468 kts | 20° |
| 2026-05-06 22:05 | 50.94879 | 19.73331 | 26081 ft | 466 kts | 20° |
| 2026-05-06 22:05 | 50.97850 | 19.75341 | 25541 ft | 462 kts | 21° |
| 2026-05-06 22:06 | 51.00788 | 19.77331 | 25006 ft | 457 kts | 21° |
| 2026-05-06 22:06 | 51.03696 | 19.79304 | 24473 ft | 452 kts | 21° |
| 2026-05-06 22:06 | 51.06574 | 19.81259 | 23921 ft | 448 kts | 21° |
| 2026-05-06 22:06 | 51.09426 | 19.83197 | 23388 ft | 444 kts | 21° |
| 2026-05-06 22:07 | 51.12256 | 19.85124 | 22819 ft | 439 kts | 21° |
| 2026-05-06 22:07 | 51.15003 | 19.86998 | 22327 ft | 433 kts | 21° |
| 2026-05-06 22:07 | 51.17756 | 19.88877 | 21802 ft | 427 kts | 21° |
| 2026-05-06 22:07 | 51.20469 | 19.90731 | 21292 ft | 422 kts | 21° |
| 2026-05-06 22:08 | 51.23152 | 19.92566 | 20783 ft | 417 kts | 21° |
| 2026-05-06 22:08 | 51.25809 | 19.94385 | 20276 ft | 413 kts | 21° |
| 2026-05-06 22:08 | 51.28439 | 19.96189 | 19769 ft | 410 kts | 21° |
| 2026-05-06 22:08 | 51.31046 | 19.97981 | 19269 ft | 406 kts | 21° |
| 2026-05-06 22:09 | 51.33634 | 19.99760 | 18763 ft | 403 kts | 21° |
| 2026-05-06 22:09 | 51.36205 | 20.01531 | 18263 ft | 401 kts | 21° |
| 2026-05-06 22:09 | 51.38755 | 20.03289 | 17732 ft | 398 kts | 21° |
| 2026-05-06 22:09 | 51.41285 | 20.05036 | 17223 ft | 394 kts | 21° |
| 2026-05-06 22:10 | 51.43786 | 20.06765 | 16740 ft | 390 kts | 21° |
| 2026-05-06 22:10 | 51.46263 | 20.08479 | 16250 ft | 386 kts | 22° |
| 2026-05-06 22:10 | 51.48719 | 20.10180 | 15791 ft | 382 kts | 22° |
| 2026-05-06 22:10 | 51.51189 | 20.11892 | 15492 ft | 397 kts | 22° |
| 2026-05-06 22:11 | 51.53779 | 20.13686 | 14988 ft | 411 kts | 22° |
| 2026-05-06 22:11 | 51.56417 | 20.15518 | 14462 ft | 415 kts | 22° |
| 2026-05-06 22:11 | 51.59062 | 20.17361 | 13937 ft | 413 kts | 22° |
| 2026-05-06 22:11 | 51.61682 | 20.19189 | 13382 ft | 408 kts | 22° |
| 2026-05-06 22:12 | 51.64264 | 20.20993 | 12861 ft | 401 kts | 22° |
| 2026-05-06 22:12 | 51.66801 | 20.22767 | 12355 ft | 395 kts | 22° |
| 2026-05-06 22:12 | 51.69302 | 20.24518 | 11851 ft | 389 kts | 22° |
| 2026-05-06 22:12 | 51.71766 | 20.26244 | 11363 ft | 384 kts | 22° |
| 2026-05-06 22:13 | 51.74200 | 20.27951 | 10866 ft | 379 kts | 22° |
| 2026-05-06 22:13 | 51.76601 | 20.29637 | 10518 ft | 370 kts | 23° |
| 2026-05-06 22:13 | 51.78918 | 20.31267 | 10370 ft | 356 kts | 23° |
| 2026-05-06 22:13 | 51.81148 | 20.32837 | 10202 ft | 345 kts | 23° |
| 2026-05-06 22:14 | 51.83386 | 20.34414 | 10043 ft | 354 kts | 23° |
| 2026-05-06 22:14 | 51.85639 | 20.36003 | 9848 ft | 351 kts | 23° |
| 2026-05-06 22:14 | 51.87862 | 20.37572 | 9461 ft | 348 kts | 23° |
| 2026-05-06 22:14 | 51.90074 | 20.39135 | 8978 ft | 345 kts | 23° |
| 2026-05-06 22:15 | 51.92265 | 20.40686 | 8517 ft | 342 kts | 23° |
| 2026-05-06 22:15 | 51.94439 | 20.42227 | 8024 ft | 340 kts | 23° |
| 2026-05-06 22:15 | 51.96598 | 20.43758 | 7578 ft | 338 kts | 23° |
| 2026-05-06 22:15 | 51.98756 | 20.45291 | 7170 ft | 339 kts | 23° |
| 2026-05-06 22:16 | 52.00904 | 20.46817 | 6758 ft | 336 kts | 23° |
| 2026-05-06 22:16 | 52.03031 | 20.48330 | 6358 ft | 331 kts | 23° |
| 2026-05-06 22:16 | 52.05133 | 20.49827 | 5898 ft | 329 kts | 23° |
| 2026-05-06 22:16 | 52.07212 | 20.51308 | 5547 ft | 322 kts | 23° |
| 2026-05-06 22:17 | 52.09207 | 20.52732 | 5363 ft | 304 kts | 23° |
| 2026-05-06 22:17 | 52.11108 | 20.54089 | 4966 ft | 294 kts | 23° |
| 2026-05-06 22:17 | 52.12960 | 20.55413 | 4461 ft | 289 kts | 23° |
| 2026-05-06 22:17 | 52.14773 | 20.56710 | 4119 ft | 278 kts | 23° |
| 2026-05-06 22:18 | 52.16547 | 20.57982 | 4031 ft | 282 kts | 24° |
| 2026-05-06 22:18 | 52.18199 | 20.59683 | 3986 ft | 279 kts | 42° |
| 2026-05-06 22:18 | 52.19440 | 20.61990 | 3872 ft | 263 kts | 53° |
| 2026-05-06 22:18 | 52.20530 | 20.64280 | 3630 ft | 253 kts | 53° |
| 2026-05-06 22:19 | 52.21602 | 20.66498 | 3287 ft | 252 kts | 52° |
| 2026-05-06 22:19 | 52.22681 | 20.68719 | 3070 ft | 247 kts | 52° |
| 2026-05-06 22:19 | 52.23408 | 20.71131 | 3023 ft | 231 kts | 83° |
| 2026-05-06 22:19 | 52.23231 | 20.73656 | 3037 ft | 228 kts | 115° |
| 2026-05-06 22:20 | 52.22523 | 20.75967 | 2862 ft | 228 kts | 121° |
| 2026-05-06 22:20 | 52.21787 | 20.78263 | 2541 ft | 228 kts | 118° |
| 2026-05-06 22:20 | 52.21103 | 20.80592 | 2245 ft | 227 kts | 116° |
| 2026-05-06 22:20 | 52.20464 | 20.82879 | 1942 ft | 215 kts | 116° |
| 2026-05-06 22:21 | 52.19863 | 20.85015 | 1681 ft | 200 kts | 116° |
| 2026-05-06 22:21 | 52.19311 | 20.86982 | 1450 ft | 180 kts | 116° |
| 2026-05-06 22:21 | 52.18823 | 20.88721 | 1196 ft | 158 kts | 116° |
| 2026-05-06 22:21 | 52.18389 | 20.90264 | 987 ft | 142 kts | 116° |
| 2026-05-06 22:22 | 52.17998 | 20.91656 | 802 ft | 129 kts | 116° |
| 2026-05-06 22:22 | 52.17616 | 20.93012 | 621 ft | 132 kts | 116° |
| 2026-05-06 22:22 | 52.17241 | 20.94348 | 407 ft | 129 kts | 116° |
| 2026-05-06 22:22 | 52.16874 | 20.95641 | 334 ft | 110 kts | 114° |
| 2026-05-06 22:23 | 52.16640 | 20.96477 | 339 ft | 53 kts | 114° |
| 2026-05-06 22:23 | 52.16533 | 20.96871 | 336 ft | 25 kts | 111° |
| 2026-05-06 22:23 | 52.16511 | 20.97137 | 336 ft | 17 kts | 86° |
| 2026-05-06 22:23 | 52.16519 | 20.97299 | 332 ft | 12 kts | 84° |
| 2026-05-06 22:24 | 52.16533 | 20.97346 | 330 ft | 0 kts | 48° |
| 2026-05-06 22:24 | 52.16535 | 20.97351 | 332 ft | 0 kts | 47° |
| 2026-05-06 22:24 | 52.16536 | 20.97352 | 332 ft | 0 kts | 47° |
| 2026-05-06 22:25 | 52.16540 | 20.97358 | 333 ft | 2 kts | 38° |
| 2026-05-06 22:25 | 52.16566 | 20.97357 | 333 ft | 5 kts | 342° |
| 2026-05-06 22:25 | 52.16613 | 20.97317 | 332 ft | 10 kts | 332° |
| 2026-05-06 22:25 | 52.16690 | 20.97253 | 335 ft | 16 kts | 332° |
| 2026-05-06 22:26 | 52.16803 | 20.97155 | 334 ft | 17 kts | 331° |
| 2026-05-06 22:26 | 52.16870 | 20.97095 | 335 ft | 10 kts | 331° |
| 2026-05-06 22:26 | 52.16940 | 20.97033 | 333 ft | 7 kts | 332° |
| 2026-05-06 22:26 | 52.16975 | 20.97002 | 334 ft | 7 kts | 331° |
| 2026-05-06 22:27 | 52.17019 | 20.96964 | 334 ft | 7 kts | 332° |
| 2026-05-06 22:27 | 52.17067 | 20.96922 | 333 ft | 9 kts | 332° |
| 2026-05-06 22:27 | 52.17127 | 20.96869 | 335 ft | 11 kts | 330° |
| 2026-05-06 22:27 | 52.17198 | 20.96805 | 334 ft | 11 kts | 331° |
| 2026-05-06 22:28 | 52.17248 | 20.96755 | 335 ft | 4 kts | 305° |
| 2026-05-06 22:28 | 52.17234 | 20.96700 | 333 ft | 7 kts | 237° |
| 2026-05-06 22:28 | 52.17219 | 20.96658 | 336 ft | 0 kts | 242° |